createdAt,value
2019-04-05T00:01:09.579Z,68.86
2019-04-05T00:03:36.531Z,69.52
2019-04-05T00:06:03.701Z,69.58
2019-04-05T00:08:30.996Z,70.18
2019-04-05T00:11:00.137Z,69.98
2019-04-05T00:13:27.078Z,69.67
2019-04-05T00:15:54.071Z,69.18
2019-04-05T00:18:21.168Z,69.41
2019-04-05T00:20:48.128Z,69.99
2019-04-05T00:23:15.118Z,70.38
2019-04-05T00:25:42.068Z,70.87
2019-04-05T00:28:09.007Z,71.25
2019-04-05T00:30:36.062Z,73.00
2019-04-05T00:33:03.219Z,75.15
2019-04-05T00:35:30.185Z,76.46
2019-04-05T00:37:57.195Z,77.00
2019-04-05T00:40:24.133Z,77.65
2019-04-05T00:42:51.139Z,77.73
2019-04-05T00:45:27.549Z,77.14
2019-04-05T00:47:47.036Z,76.08
2019-04-05T00:50:14.257Z,74.84
2019-04-05T00:52:41.273Z,73.90
2019-04-05T00:55:08.824Z,72.90
2019-04-05T00:57:35.989Z,72.06
2019-04-05T01:00:04.366Z,71.68
2019-04-05T01:02:32.932Z,71.16
2019-04-05T01:04:59.891Z,70.33
2019-04-05T01:07:26.868Z,69.88
2019-04-05T01:09:54.030Z,69.84
2019-04-05T01:12:22.132Z,69.79
2019-04-05T01:14:49.137Z,69.26
2019-04-05T01:17:24.756Z,69.13
2019-04-05T01:19:47.260Z,71.57
2019-04-05T01:22:15.259Z,71.97
2019-04-05T01:24:43.476Z,72.50
2019-04-05T01:27:12.231Z,71.88
2019-04-05T01:29:39.202Z,71.51
2019-04-05T01:32:06.152Z,71.50
2019-04-05T01:34:33.110Z,70.94
2019-04-05T01:37:00.193Z,69.68
2019-04-05T01:39:27.168Z,68.52
2019-04-05T01:41:54.515Z,67.36
2019-04-05T01:44:23.454Z,66.68
2019-04-05T01:46:50.392Z,67.07
2019-04-05T01:49:18.745Z,67.08
2019-04-05T01:51:45.803Z,67.25
2019-04-05T01:54:12.762Z,67.22
2019-04-05T01:56:39.736Z,67.33
2019-04-05T01:59:06.787Z,67.70
2019-04-05T02:01:33.756Z,67.38
2019-04-05T02:04:00.706Z,67.30
2019-04-05T02:06:27.830Z,68.07
2019-04-05T02:08:54.777Z,67.80
2019-04-05T02:11:21.940Z,67.66
2019-04-05T02:13:48.923Z,67.59
2019-04-05T02:16:15.889Z,67.56
2019-04-05T02:18:44.870Z,67.50
2019-04-05T02:21:11.838Z,68.06
2019-04-05T02:23:40.130Z,68.74
2019-04-05T02:26:07.075Z,68.86
2019-04-05T02:28:34.063Z,68.86
2019-04-05T02:31:01.054Z,68.47
2019-04-05T02:33:28.070Z,68.04
2019-04-05T02:35:55.031Z,67.46
2019-04-05T02:38:21.988Z,67.98
2019-04-05T02:40:50.731Z,68.17
2019-04-05T02:43:20.222Z,68.24
2019-04-05T02:45:49.820Z,67.94
2019-04-05T02:48:18.376Z,67.81
2019-04-05T02:50:49.697Z,67.99
2019-04-05T02:53:18.580Z,68.38
2019-04-05T02:55:46.864Z,68.65
2019-04-05T02:58:14.343Z,69.21
2019-04-05T03:00:44.991Z,69.35
2019-04-05T03:03:13.697Z,69.06
2019-04-05T03:05:41.278Z,68.95
2019-04-05T03:08:08.532Z,68.85
2019-04-05T03:11:04.630Z,68.79
2019-04-05T03:13:36.106Z,68.78
2019-04-05T03:16:07.984Z,68.60
2019-04-05T03:18:38.956Z,68.59
2019-04-05T03:21:10.565Z,68.41
2019-04-05T03:23:41.313Z,68.18
2019-04-05T03:26:11.740Z,68.97
2019-04-05T03:28:40.679Z,69.30
2019-04-05T03:31:08.633Z,69.06
2019-04-05T03:33:36.330Z,68.72
2019-04-05T03:36:03.577Z,68.43
2019-04-05T03:38:31.059Z,67.80
2019-04-05T03:40:58.139Z,67.83
2019-04-05T03:43:25.289Z,67.84
2019-04-05T03:45:52.670Z,67.50
2019-04-05T03:48:21.888Z,67.71
2019-04-05T03:50:48.840Z,67.82
2019-04-05T03:53:15.797Z,68.21
2019-04-05T03:55:42.766Z,68.14
2019-04-05T03:58:10.377Z,68.69
2019-04-05T04:00:37.972Z,69.04
2019-04-05T04:03:05.492Z,69.44
2019-04-05T04:05:33.206Z,69.52
2019-04-05T04:08:00.381Z,69.84
2019-04-05T04:10:27.785Z,69.63
2019-04-05T04:12:54.945Z,69.06
2019-04-05T04:15:23.754Z,68.76
2019-04-05T04:17:51.297Z,68.41
2019-04-05T04:20:43.709Z,67.95
2019-04-05T04:23:11.900Z,67.62
2019-04-05T04:25:39.743Z,66.77
2019-04-05T04:28:06.788Z,67.20
2019-04-05T04:30:35.413Z,67.82
2019-04-05T04:33:02.699Z,68.08
2019-04-05T04:35:30.642Z,69.08
2019-04-05T04:37:58.416Z,70.15
2019-04-05T04:40:25.757Z,71.37
2019-04-05T04:42:52.944Z,71.43
2019-04-05T04:45:20.020Z,70.75
2019-04-05T04:47:47.525Z,71.60
2019-04-05T04:50:15.300Z,72.29
2019-04-05T04:52:44.019Z,71.68
2019-04-05T04:55:11.474Z,69.87
2019-04-05T04:57:38.484Z,69.27
2019-04-05T05:00:09.712Z,68.69
2019-04-05T05:02:36.728Z,68.52
2019-04-05T05:05:05.548Z,68.10
2019-04-05T05:07:32.959Z,67.77
2019-04-05T05:10:02.997Z,67.34
2019-04-05T05:12:29.039Z,67.26
2019-04-05T05:14:56.103Z,67.22
2019-04-05T05:17:24.706Z,67.09
2019-04-05T05:19:52.266Z,66.63
2019-04-05T05:22:20.440Z,66.26
2019-04-05T05:24:47.409Z,66.17
2019-04-05T05:27:14.575Z,65.72
2019-04-05T05:29:44.113Z,65.43
2019-04-05T05:32:24.293Z,65.22
2019-04-05T05:42:12.087Z,65.63
2019-04-05T05:44:39.253Z,65.80
2019-04-05T05:47:06.342Z,66.63
2019-04-05T05:49:34.774Z,67.29
2019-04-05T05:52:02.494Z,66.92
2019-04-05T05:54:31.331Z,66.98
2019-04-05T05:56:58.525Z,66.21
2019-04-05T05:59:29.669Z,66.09
2019-04-05T06:01:54.932Z,65.54
2019-04-05T06:04:23.031Z,65.30
2019-04-05T06:06:50.089Z,65.31
2019-04-05T06:09:17.114Z,65.30
2019-04-05T06:11:44.328Z,65.52
2019-04-05T06:14:12.616Z,65.44
2019-04-05T06:16:46.186Z,65.89
2019-04-05T06:19:08.621Z,65.72
2019-04-05T06:21:35.653Z,65.20
2019-04-05T06:24:05.227Z,64.87
2019-04-05T06:26:31.930Z,65.35
2019-04-05T06:28:59.048Z,65.76
2019-04-05T06:31:26.063Z,65.33
2019-04-05T06:33:53.119Z,64.84
2019-04-05T06:36:20.151Z,65.02
2019-04-05T06:38:47.300Z,65.22
2019-04-05T06:41:14.382Z,64.92
2019-04-05T06:43:41.455Z,64.29
2019-04-05T06:46:08.582Z,63.82
2019-04-05T06:48:35.873Z,62.75
2019-04-05T06:51:10.105Z,62.52
2019-04-05T06:53:37.193Z,62.30
2019-04-05T06:56:04.372Z,62.28
2019-04-05T06:58:31.505Z,61.94
2019-04-05T07:00:58.717Z,61.51
2019-04-05T07:03:27.204Z,61.22
2019-04-05T07:05:55.753Z,61.02
2019-04-05T07:08:23.086Z,59.44
2019-04-05T07:10:50.239Z,60.07
2019-04-05T07:13:17.277Z,59.24
2019-04-05T07:15:44.336Z,58.91
2019-04-05T07:18:11.702Z,58.39
2019-04-05T07:20:39.232Z,57.88
2019-04-05T07:23:08.874Z,55.59
2019-04-05T07:25:36.463Z,56.18
2019-04-05T07:28:03.815Z,57.72
2019-04-05T07:30:32.727Z,59.78
2019-04-05T07:33:00.026Z,59.93
2019-04-05T07:35:33.733Z,58.13
2019-04-05T07:37:57.380Z,59.24
2019-04-05T07:40:25.690Z,59.45
2019-04-05T07:42:52.679Z,56.83
2019-04-05T07:45:19.911Z,57.26
2019-04-05T07:47:47.136Z,55.55
2019-04-05T07:50:14.345Z,55.03
2019-04-05T07:52:41.427Z,55.83
2019-04-05T07:55:09.077Z,55.02
2019-04-05T07:57:37.232Z,54.36
2019-04-05T08:00:06.578Z,54.45
2019-04-05T08:02:33.838Z,58.06
2019-04-05T08:05:02.789Z,59.10
2019-04-05T08:07:36.906Z,58.32
2019-04-05T08:10:12.201Z,57.87
2019-04-05T08:12:41.681Z,60.20
2019-04-05T08:15:10.676Z,64.17
2019-04-05T08:17:37.861Z,63.90
2019-04-05T08:20:07.892Z,65.02
2019-04-05T08:22:35.330Z,64.96
2019-04-05T08:25:02.601Z,65.25
2019-04-05T08:27:30.838Z,65.09
2019-04-05T08:29:58.429Z,63.83
2019-04-05T08:32:27.583Z,63.36
2019-04-05T08:34:55.724Z,63.57
2019-04-05T08:37:24.212Z,62.87
2019-04-05T08:39:51.814Z,62.84
2019-04-05T08:42:19.059Z,63.80
2019-04-05T08:44:46.093Z,62.51
2019-04-05T08:47:13.148Z,60.55
2019-04-05T08:49:40.251Z,58.81
2019-04-05T08:52:07.407Z,58.60
2019-04-05T08:54:36.766Z,59.41
2019-04-05T08:57:04.373Z,59.85
2019-04-05T08:59:31.530Z,62.73
2019-04-05T09:01:58.678Z,64.86
2019-04-05T09:04:25.783Z,63.60
2019-04-05T09:06:53.134Z,63.97
2019-04-05T09:13:10.144Z,61.24
2019-04-05T09:15:38.922Z,63.17
2019-04-05T09:18:06.032Z,61.34
2019-04-05T09:20:33.146Z,59.80
2019-04-05T09:23:01.444Z,58.79
2019-04-05T09:25:29.030Z,58.23
2019-04-05T09:27:57.963Z,60.64
2019-04-05T09:30:25.041Z,62.09
2019-04-05T09:32:52.326Z,61.15
2019-04-05T09:35:19.528Z,59.10
2019-04-05T09:37:46.862Z,58.31
2019-04-05T09:40:14.241Z,61.52
2019-04-05T09:42:43.195Z,61.58
2019-04-05T09:45:12.093Z,57.83
2019-04-05T09:47:39.121Z,58.10
2019-04-05T09:50:06.988Z,57.33
2019-04-05T09:52:34.048Z,59.39
2019-04-05T09:55:01.929Z,58.39
2019-04-05T09:57:29.281Z,59.69
2019-04-05T09:59:56.457Z,59.23
2019-04-05T10:02:23.505Z,58.64
2019-04-05T10:04:50.708Z,57.94
2019-04-05T10:07:19.556Z,57.89
2019-04-05T10:09:47.996Z,59.09
2019-04-05T10:12:16.039Z,58.03
2019-04-05T10:14:43.143Z,57.69
2019-04-05T10:17:11.303Z,57.65
2019-04-05T10:19:49.245Z,56.58
2019-04-05T10:22:10.636Z,53.40
2019-04-05T10:24:37.688Z,53.64
2019-04-05T10:27:04.714Z,54.04
2019-04-05T10:29:31.935Z,55.80
2019-04-05T10:32:00.147Z,59.55
2019-04-05T10:34:27.174Z,59.03
2019-04-05T10:36:54.209Z,57.15
2019-04-05T10:39:21.273Z,57.95
2019-04-05T10:41:48.625Z,56.12
2019-04-05T10:44:16.188Z,56.24
2019-04-05T10:46:43.258Z,57.96
2019-04-05T10:49:11.332Z,56.03
2019-04-05T10:51:38.401Z,54.75
2019-04-05T10:54:09.404Z,53.16
2019-04-05T10:56:39.354Z,54.38
2019-04-05T10:59:13.249Z,58.52
2019-04-05T11:01:41.095Z,58.39
2019-04-05T11:04:16.872Z,60.14
2019-04-05T11:06:45.710Z,59.07
2019-04-05T11:09:20.233Z,58.06
2019-04-05T11:11:47.290Z,57.18
2019-04-05T11:14:14.485Z,57.95
2019-04-05T11:16:42.727Z,58.06
2019-04-05T11:19:11.516Z,58.53
2019-04-05T11:21:40.433Z,56.92
2019-04-05T11:24:10.662Z,58.81
2019-04-05T11:26:38.126Z,56.21
2019-04-05T11:29:05.269Z,55.69
2019-04-05T11:31:32.339Z,54.15
2019-04-05T11:34:00.758Z,56.23
2019-04-05T11:36:36.582Z,57.04
2019-04-05T11:39:06.669Z,56.68
2019-04-05T11:41:46.349Z,56.42
2019-04-05T11:44:15.767Z,58.74
2019-04-05T11:46:49.146Z,57.09
2019-04-05T11:49:16.904Z,58.13
2019-04-05T11:51:45.107Z,57.25
2019-04-05T11:54:13.855Z,59.27
2019-04-05T11:56:41.192Z,59.53
2019-04-05T11:59:15.557Z,59.31
2019-04-05T12:02:16.969Z,57.46
2019-04-05T12:04:47.842Z,58.17
2019-04-05T12:07:14.895Z,58.14
2019-04-05T12:09:42.739Z,61.22
2019-04-05T12:12:09.815Z,62.71
2019-04-05T12:14:38.680Z,61.11
2019-04-05T12:17:06.222Z,60.42
2019-04-05T12:19:33.626Z,59.70
2019-04-05T12:22:04.582Z,57.64
2019-04-05T12:24:47.762Z,55.71
2019-04-05T12:27:36.626Z,56.29
2019-04-05T12:30:04.594Z,57.05
2019-04-05T12:32:41.085Z,58.42
2019-04-05T12:35:04.918Z,58.97
2019-04-05T12:37:32.206Z,60.98
2019-04-05T12:40:00.748Z,62.42
2019-04-05T12:42:27.873Z,63.01
2019-04-05T12:44:57.415Z,61.65
2019-04-05T12:47:27.405Z,60.31
2019-04-05T12:49:57.096Z,61.21
2019-04-05T12:52:28.960Z,57.59
2019-04-05T12:54:55.998Z,57.45
2019-04-05T12:57:23.245Z,58.77
2019-04-05T12:59:55.606Z,59.25
2019-04-05T13:02:33.263Z,58.13
2019-04-05T13:04:53.732Z,57.26
2019-04-05T13:07:22.799Z,56.16
2019-04-05T13:09:53.843Z,55.29
2019-04-05T13:12:26.304Z,55.84
2019-04-05T13:14:59.706Z,57.99
2019-04-05T13:17:24.019Z,58.88
2019-04-05T13:20:00.879Z,59.69
2019-04-05T13:22:33.063Z,60.14
2019-04-05T13:25:02.562Z,59.67
2019-04-05T13:27:30.865Z,59.46
2019-04-05T13:29:57.937Z,59.04
2019-04-05T13:32:27.746Z,59.15
2019-04-05T13:34:56.458Z,59.84
2019-04-05T13:37:28.541Z,61.88
2019-04-05T13:40:00.026Z,62.52
2019-04-05T13:42:31.258Z,61.50
2019-04-05T13:45:01.783Z,60.00
2019-04-05T13:47:32.982Z,61.57
2019-04-05T13:49:59.702Z,60.50
2019-04-05T13:52:28.702Z,59.71
2019-04-05T13:54:57.493Z,60.02
2019-04-05T13:57:25.058Z,61.93
2019-04-05T13:59:52.148Z,63.63
2019-04-05T14:02:21.662Z,62.54
2019-04-05T14:04:53.434Z,61.21
2019-04-05T14:07:25.218Z,60.87
2019-04-05T14:09:52.364Z,62.25
2019-04-05T14:12:19.651Z,60.52
2019-04-05T14:14:51.006Z,58.57
2019-04-05T14:17:17.022Z,59.18
2019-04-05T14:19:46.733Z,61.25
2019-04-05T14:22:17.883Z,60.59
2019-04-05T14:24:45.087Z,61.26
2019-04-05T14:27:20.557Z,61.52
2019-04-05T14:29:54.974Z,60.91
2019-04-05T14:32:55.419Z,61.86
2019-04-05T14:35:25.321Z,61.23
2019-04-05T14:37:54.617Z,62.34
2019-04-05T14:40:22.933Z,63.74
2019-04-05T14:42:50.003Z,62.03
2019-04-05T14:45:18.197Z,62.71
2019-04-05T14:47:45.520Z,61.12
2019-04-05T14:50:15.947Z,60.99
2019-04-05T14:52:45.913Z,62.29
2019-04-05T14:55:14.765Z,61.91
2019-04-05T14:57:41.805Z,62.84
2019-04-05T15:00:09.850Z,61.06
2019-04-05T15:02:37.079Z,60.08
2019-04-05T15:05:05.987Z,60.48
2019-04-05T15:07:34.384Z,62.49
2019-04-05T15:10:27.939Z,62.82
2019-04-05T15:13:00.270Z,64.19
2019-04-05T15:15:27.785Z,65.04
2019-04-05T15:17:56.680Z,65.64
2019-04-05T15:20:25.858Z,64.99
2019-04-05T15:22:52.929Z,64.54
2019-04-05T15:25:21.793Z,65.73
2019-04-05T15:27:52.569Z,64.96
2019-04-05T15:30:18.470Z,65.99
2019-04-05T15:32:45.622Z,64.86
2019-04-05T15:35:12.957Z,65.29
2019-04-05T15:37:40.135Z,66.02
2019-04-05T15:40:09.416Z,65.15
2019-04-05T15:42:36.572Z,64.38
2019-04-05T15:45:05.939Z,64.35
2019-04-05T15:47:34.305Z,64.77
2019-04-05T15:50:01.452Z,65.42
2019-04-05T15:52:31.852Z,65.07
2019-04-05T15:55:06.014Z,64.69
2019-04-05T15:57:34.288Z,65.04
2019-04-05T16:00:03.795Z,63.99
2019-04-05T16:02:33.174Z,64.63
2019-04-05T16:05:00.675Z,63.45
2019-04-05T16:07:27.862Z,64.70
2019-04-05T16:09:55.308Z,64.56
2019-04-05T16:12:22.477Z,64.42
2019-04-05T16:14:49.516Z,64.46
2019-04-05T16:17:16.616Z,66.21
2019-04-05T16:19:43.652Z,65.48
2019-04-05T16:22:10.774Z,66.14
2019-04-05T16:24:37.861Z,66.20
2019-04-05T16:27:05.032Z,67.40
2019-04-05T16:29:32.092Z,68.35
2019-04-05T16:31:59.485Z,70.79
2019-04-05T16:34:26.500Z,70.30
2019-04-05T16:36:53.565Z,71.53
2019-04-05T16:39:20.743Z,71.58
2019-04-05T16:41:47.840Z,71.13
2019-04-05T16:44:16.313Z,72.52
2019-04-05T16:46:43.413Z,73.10
2019-04-05T16:49:11.727Z,71.82
2019-04-05T16:51:38.776Z,72.01
2019-04-05T16:54:05.838Z,73.74
2019-04-05T16:56:33.104Z,74.38
2019-04-05T16:59:03.129Z,75.08
2019-04-05T17:01:30.242Z,75.93
2019-04-05T17:03:57.598Z,75.80
2019-04-05T17:06:24.786Z,75.50
2019-04-05T17:08:52.110Z,74.73
2019-04-05T17:11:19.181Z,74.42
2019-04-05T17:13:46.288Z,74.72
2019-04-05T17:16:13.792Z,75.84
2019-04-05T17:18:42.909Z,74.90
2019-04-05T17:21:10.351Z,74.58
2019-04-05T17:23:38.857Z,74.84
2019-04-05T17:26:08.996Z,74.95
2019-04-05T17:28:36.283Z,74.28
2019-04-05T17:31:03.725Z,73.45
2019-04-05T17:33:30.753Z,72.20
2019-04-05T17:36:04.715Z,74.06
2019-04-05T17:38:32.624Z,74.78
2019-04-05T17:40:59.815Z,74.69
2019-04-05T17:43:28.164Z,73.47
2019-04-05T17:45:57.945Z,72.02
2019-04-05T17:48:26.335Z,70.91
2019-04-05T17:50:53.397Z,70.36
2019-04-05T17:53:20.687Z,70.10
2019-04-05T17:55:49.158Z,70.54
2019-04-05T17:58:17.817Z,71.00
2019-04-05T18:00:47.351Z,70.77
2019-04-05T18:03:17.257Z,69.75
2019-04-05T18:05:46.401Z,69.64
2019-04-05T18:08:13.965Z,69.41
2019-04-05T18:10:41.130Z,69.74
2019-04-05T18:13:08.268Z,69.84
2019-04-05T18:15:35.910Z,69.56
2019-04-05T18:18:03.078Z,69.99
2019-04-05T18:20:33.833Z,71.21
2019-04-05T18:23:00.927Z,72.76
2019-04-05T18:25:28.150Z,71.99
2019-04-05T18:27:55.287Z,71.85
2019-04-05T18:30:24.577Z,71.42
2019-04-05T18:32:57.479Z,71.40
2019-04-05T18:35:24.555Z,71.48
2019-04-05T18:37:52.183Z,71.38
2019-04-05T18:40:19.272Z,72.19
2019-04-05T18:42:53.515Z,72.24
2019-04-05T18:45:20.605Z,72.23
2019-04-05T18:47:47.905Z,71.97
2019-04-05T18:50:15.360Z,72.37
2019-04-05T18:52:42.570Z,72.28
2019-04-05T18:55:11.131Z,73.99
2019-04-05T18:57:38.285Z,74.45
2019-04-05T19:00:05.511Z,75.21
2019-04-05T19:02:37.084Z,75.96
2019-04-05T19:05:05.697Z,75.98
2019-04-05T19:07:33.271Z,76.60
2019-04-05T19:10:00.407Z,77.43
2019-04-05T19:12:29.421Z,77.12
2019-04-05T19:14:57.825Z,76.79
2019-04-05T19:17:28.896Z,76.27
2019-04-05T19:19:59.963Z,75.68
2019-04-05T19:22:31.547Z,75.82
2019-04-05T19:24:58.708Z,76.60
2019-04-05T19:27:32.142Z,76.79
2019-04-05T19:50:09.015Z,72.94
2019-04-05T19:52:36.134Z,73.31
2019-04-05T19:55:04.296Z,72.93
2019-04-05T19:57:31.353Z,72.12
2019-04-05T20:00:00.449Z,71.37
2019-04-05T20:02:27.765Z,70.54
2019-04-05T20:04:56.051Z,70.08
2019-04-05T20:07:24.330Z,70.20
2019-04-05T20:09:54.725Z,70.01
2019-04-05T20:12:21.848Z,69.71
2019-04-05T20:14:49.081Z,69.40
2019-04-05T20:17:18.380Z,69.33
2019-04-05T20:19:49.628Z,69.36
2019-04-05T20:22:16.943Z,69.23
2019-04-05T20:24:45.318Z,69.54
2019-04-05T20:27:16.514Z,69.54
2019-04-05T20:29:43.788Z,69.11
2019-04-05T20:32:12.255Z,68.90
2019-04-05T20:34:39.545Z,68.77
2019-04-05T20:37:07.759Z,68.51
2019-04-05T20:39:35.020Z,68.52
2019-04-05T20:42:02.122Z,68.48
2019-04-05T20:44:29.398Z,68.48
2019-04-05T20:46:56.941Z,68.60
2019-04-05T20:49:24.123Z,68.09
2019-04-05T20:51:54.046Z,68.22
2019-04-05T20:54:24.838Z,68.73
2019-04-05T20:56:50.809Z,70.13
2019-04-05T20:59:18.021Z,71.25
2019-04-05T21:01:47.300Z,71.00
2019-04-05T21:04:16.298Z,70.79
2019-04-05T21:06:43.528Z,72.31
2019-04-05T21:09:10.709Z,72.55
2019-04-05T21:11:38.195Z,71.40
2019-04-05T21:14:08.156Z,72.11
2019-04-05T21:16:35.231Z,73.68
2019-04-05T21:19:04.874Z,73.45
2019-04-05T21:21:31.390Z,73.28
2019-04-05T21:24:00.256Z,72.42
2019-04-05T21:26:28.846Z,72.39
2019-04-05T21:28:55.945Z,71.27
2019-04-05T21:31:23.103Z,70.96
2019-04-05T21:33:50.179Z,71.40
2019-04-05T21:36:17.253Z,72.19
2019-04-05T21:38:44.308Z,72.52
2019-04-05T21:41:13.231Z,71.91
2019-04-05T21:43:41.490Z,71.48
2019-04-05T21:46:08.620Z,71.25
2019-04-05T21:48:35.647Z,71.59
2019-04-05T21:51:02.853Z,72.28
2019-04-05T21:53:29.881Z,72.13
2019-04-05T21:55:57.295Z,71.31
2019-04-05T21:58:25.966Z,70.61
2019-04-05T22:00:58.938Z,70.06
2019-04-05T22:03:26.607Z,69.60
2019-04-05T22:05:53.643Z,69.07
2019-04-05T22:08:24.089Z,68.69
2019-04-05T22:10:51.194Z,68.83
2019-04-05T22:13:18.273Z,69.10
2019-04-05T22:15:45.323Z,69.20
2019-04-05T22:18:12.564Z,69.32
2019-04-05T22:20:39.624Z,68.93
2019-04-05T22:23:06.972Z,68.33
2019-04-05T22:25:34.146Z,68.50
2019-04-05T22:28:01.180Z,68.74
2019-04-05T22:30:28.231Z,68.70
2019-04-05T22:32:55.343Z,69.25
2019-04-05T22:35:24.189Z,69.44
2019-04-05T22:37:51.492Z,69.19
2019-04-05T22:40:18.560Z,69.23
2019-04-05T22:42:45.661Z,69.43
2019-04-05T22:45:12.727Z,69.33
2019-04-05T22:47:39.901Z,69.50
2019-04-05T22:50:08.834Z,69.71
2019-04-05T22:52:37.012Z,69.50
2019-04-05T22:55:11.228Z,69.51
2019-04-05T22:57:35.152Z,69.34
2019-04-05T23:00:02.442Z,68.94
2019-04-05T23:02:34.247Z,68.43
2019-04-05T23:05:01.819Z,68.36
2019-04-05T23:07:29.852Z,68.67
2019-04-05T23:09:57.252Z,69.11
2019-04-05T23:12:24.376Z,70.55
2019-04-05T23:14:51.408Z,72.26
2019-04-05T23:17:18.986Z,72.14
2019-04-05T23:19:47.761Z,70.40
2019-04-05T23:22:14.989Z,69.86
2019-04-05T23:24:42.043Z,69.60
2019-04-05T23:27:09.186Z,69.55
2019-04-05T23:29:36.232Z,69.74
2019-04-05T23:32:03.305Z,69.78
2019-04-05T23:34:30.344Z,70.23
2019-04-05T23:36:57.476Z,70.25
2019-04-05T23:39:24.594Z,70.25
2019-04-05T23:41:51.641Z,70.26
2019-04-05T23:44:18.902Z,71.10
2019-04-05T23:46:45.946Z,71.66
2019-04-05T23:49:14.132Z,72.03
2019-04-05T23:51:41.407Z,72.26
2019-04-05T23:54:08.441Z,72.57
2019-04-05T23:56:35.482Z,72.53
2019-04-05T23:59:02.554Z,72.68
